Time;durP1;ratioP1;P1;durP2;ratioP2;P2;SDS_P1;SDS_P2;PMS_P1;PMS_P2;Temp;Humidity;BMP_temperature;BMP_pressure;BME280_temperature;BME280_humidity;BME280_pressure;Samples;Min_cycle;Max_cycle;Signal;HPM_P1;HPM_P2
2022/07/11 00:02:02;;;;;;;2.75;1.20;;;;;;;;;;5096585;28;20099;-76
2022/07/11 00:04:29;;;;;;;3.58;1.50;;;;;;;;;;5097467;27;20044;-76
2022/07/11 00:06:56;;;;;;;3.78;1.40;;;;;;;;;;5100996;28;20039;-76
2022/07/11 00:09:22;;;;;;;4.88;1.30;;;;;;;;;;5084359;28;20514;-76
2022/07/11 00:11:48;;;;;;;3.92;1.42;;;;;;;;;;5100153;28;20604;-76
2022/07/11 00:14:14;;;;;;;4.35;1.63;;;;;;;;;;5097253;28;20399;-76
2022/07/11 00:16:40;;;;;;;8.23;1.95;;;;;;;;;;5102194;28;20056;-76
2022/07/11 00:19:06;;;;;;;5.45;1.95;;;;;;;;;;5091836;28;20077;-76
2022/07/11 00:21:34;;;;;;;3.75;1.50;;;;;;;;;;5103141;28;20039;-76
2022/07/11 00:24:00;;;;;;;3.80;1.33;;;;;;;;;;5104908;28;20024;-76
2022/07/11 00:26:26;;;;;;;2.58;1.23;;;;;;;;;;5096042;28;20043;-77
2022/07/11 00:28:52;;;;;;;4.65;2.13;;;;;;;;;;5101669;28;20038;-76
2022/07/11 00:31:18;;;;;;;8.52;4.63;;;;;;;;;;5097313;28;20092;-76
2022/07/11 00:33:44;;;;;;;11.27;4.70;;;;;;;;;;5100621;28;20073;-76
2022/07/11 00:36:11;;;;;;;8.55;2.90;;;;;;;;;;5099550;28;20039;-76
2022/07/11 00:38:37;;;;;;;6.32;3.00;;;;;;;;;;5097496;28;20028;-76
2022/07/11 00:41:03;;;;;;;6.95;3.33;;;;;;;;;;5096062;28;20277;-76
2022/07/11 00:43:34;;;;;;;6.30;2.90;;;;;;;;;;5098321;28;20093;-76
2022/07/11 00:46:00;;;;;;;7.05;2.55;;;;;;;;;;5089756;28;20030;-76
2022/07/11 00:48:26;;;;;;;4.88;2.50;;;;;;;;;;5100282;28;20131;-76
2022/07/11 00:50:53;;;;;;;6.10;3.25;;;;;;;;;;5100952;28;20037;-76
2022/07/11 00:53:20;;;;;;;12.68;5.90;;;;;;;;;;5105996;28;20059;-76
2022/07/11 00:55:46;;;;;;;11.80;6.90;;;;;;;;;;5104796;28;20027;-76
2022/07/11 00:58:12;;;;;;;9.98;6.00;;;;;;;;;;5098765;28;20032;-76
2022/07/11 01:00:39;;;;;;;8.73;5.05;;;;;;;;;;5093824;28;20701;-76
2022/07/11 01:03:06;;;;;;;7.65;3.40;;;;;;;;;;5097238;28;20040;-76
2022/07/11 01:05:32;;;;;;;7.05;3.15;;;;;;;;;;5099680;28;20020;-76
2022/07/11 01:07:58;;;;;;;6.57;3.45;;;;;;;;;;5097000;28;20036;-76
2022/07/11 01:10:24;;;;;;;6.82;3.50;;;;;;;;;;5098121;28;20024;-76
2022/07/11 01:12:50;;;;;;;7.05;3.40;;;;;;;;;;5101324;28;20043;-76
2022/07/11 01:15:16;;;;;;;5.88;3.22;;;;;;;;;;5106752;28;20061;-76
2022/07/11 01:17:43;;;;;;;4.57;2.67;;;;;;;;;;5097060;28;20051;-76
2022/07/11 01:20:12;;;;;;;7.63;2.55;;;;;;;;;;5099150;28;20085;-76
2022/07/11 01:22:45;;;;;;;5.03;2.45;;;;;;;;;;5094386;28;20074;-76
2022/07/11 01:25:29;;;;;;;5.25;2.33;;;;;;;;;;5100847;27;20502;-76
2022/07/11 01:27:56;;;;;;;6.20;1.95;;;;;;;;;;5094884;28;20417;-76
2022/07/11 01:30:22;;;;;;;4.03;1.70;;;;;;;;;;5100897;27;20082;-76
2022/07/11 01:32:48;;;;;;;6.43;1.65;;;;;;;;;;5099938;27;20028;-76
2022/07/11 01:35:14;;;;;;;6.82;1.75;;;;;;;;;;5099156;28;20136;-76
2022/07/11 01:37:40;;;;;;;5.50;1.70;;;;;;;;;;5101952;28;20035;-76
2022/07/11 01:40:06;;;;;;;4.95;1.60;;;;;;;;;;5107317;27;20089;-76
2022/07/11 01:42:32;;;;;;;3.95;1.67;;;;;;;;;;5098502;28;20036;-76
2022/07/11 01:44:58;;;;;;;2.75;1.38;;;;;;;;;;5095614;28;20032;-76
2022/07/11 01:47:24;;;;;;;9.57;1.98;;;;;;;;;;5099106;28;20028;-76
2022/07/11 01:49:50;;;;;;;3.90;1.33;;;;;;;;;;5101202;27;20054;-76
2022/07/11 01:52:16;;;;;;;4.35;1.65;;;;;;;;;;5097076;28;20179;-76
2022/07/11 01:54:42;;;;;;;3.38;1.27;;;;;;;;;;5097464;27;20872;-76
2022/07/11 01:57:09;;;;;;;4.80;1.30;;;;;;;;;;5105112;27;20031;-76
2022/07/11 01:59:36;;;;;;;3.35;1.42;;;;;;;;;;5099372;27;20032;-76
2022/07/11 02:02:02;;;;;;;2.70;1.40;;;;;;;;;;5104317;28;20684;-76
2022/07/11 02:04:28;;;;;;;3.22;1.27;;;;;;;;;;5098625;28;20064;-76
2022/07/11 02:06:54;;;;;;;5.93;1.40;;;;;;;;;;5097601;27;20062;-76
2022/07/11 02:09:20;;;;;;;4.30;1.20;;;;;;;;;;5098888;28;20062;-76
2022/07/11 02:11:46;;;;;;;3.03;1.20;;;;;;;;;;5102985;28;20031;-76
2022/07/11 02:14:13;;;;;;;2.80;1.23;;;;;;;;;;5099021;27;20805;-76
2022/07/11 02:16:39;;;;;;;4.47;1.63;;;;;;;;;;5095089;28;20097;-76
2022/07/11 02:19:06;;;;;;;8.30;1.30;;;;;;;;;;5098406;28;20081;-76
2022/07/11 02:21:32;;;;;;;3.58;1.20;;;;;;;;;;5104399;27;20034;-76
2022/07/11 02:23:58;;;;;;;3.05;1.23;;;;;;;;;;5107280;27;20111;-76
2022/07/11 02:26:24;;;;;;;3.50;1.30;;;;;;;;;;5102010;28;20035;-76
2022/07/11 02:28:50;;;;;;;4.90;1.25;;;;;;;;;;5105734;27;20044;-76
2022/07/11 02:31:16;;;;;;;4.38;1.30;;;;;;;;;;5104143;27;20032;-76
2022/07/11 02:33:43;;;;;;;2.92;1.20;;;;;;;;;;5091641;27;20047;-76
2022/07/11 02:36:10;;;;;;;3.42;1.30;;;;;;;;;;5093819;28;20059;-76
2022/07/11 02:38:36;;;;;;;6.60;1.70;;;;;;;;;;5101350;27;20032;-76
2022/07/11 02:41:02;;;;;;;5.72;1.80;;;;;;;;;;5096330;27;20031;-76
2022/07/11 02:43:28;;;;;;;5.80;1.70;;;;;;;;;;5100403;27;20916;-76
2022/07/11 02:45:55;;;;;;;4.38;1.35;;;;;;;;;;5099295;27;20039;-76
2022/07/11 02:48:21;;;;;;;7.45;1.40;;;;;;;;;;5101697;27;20043;-76
2022/07/11 02:50:47;;;;;;;6.63;1.60;;;;;;;;;;5100804;27;20495;-76
2022/07/11 02:53:13;;;;;;;3.60;1.63;;;;;;;;;;5098304;28;20035;-76
2022/07/11 02:55:39;;;;;;;2.80;1.60;;;;;;;;;;5099958;27;20085;-76
2022/07/11 02:58:05;;;;;;;3.92;1.67;;;;;;;;;;5109100;27;20115;-76
2022/07/11 03:00:31;;;;;;;4.75;1.50;;;;;;;;;;5100297;27;20035;-76
2022/07/11 03:02:57;;;;;;;5.57;1.42;;;;;;;;;;5100971;27;20032;-76
2022/07/11 03:05:23;;;;;;;2.55;1.17;;;;;;;;;;5097747;28;20351;-76
2022/07/11 03:07:49;;;;;;;7.53;1.52;;;;;;;;;;5105080;27;20482;-76
2022/07/11 03:10:15;;;;;;;5.55;1.77;;;;;;;;;;5105416;27;20107;-76
2022/07/11 03:12:42;;;;;;;5.35;2.03;;;;;;;;;;5104329;28;20431;-76
2022/07/11 03:15:08;;;;;;;3.75;1.48;;;;;;;;;;5093928;28;20665;-76
2022/07/11 03:17:35;;;;;;;5.35;1.80;;;;;;;;;;5095143;28;20139;-76
2022/07/11 03:20:01;;;;;;;2.97;1.35;;;;;;;;;;5110067;27;20015;-76
2022/07/11 03:22:27;;;;;;;4.80;1.40;;;;;;;;;;5098736;28;20055;-76
2022/07/11 03:24:53;;;;;;;5.03;1.23;;;;;;;;;;5101821;27;20051;-76
2022/07/11 03:27:20;;;;;;;7.60;1.92;;;;;;;;;;5103579;27;20458;-76
2022/07/11 03:29:46;;;;;;;7.28;2.08;;;;;;;;;;5101312;27;20046;-76
2022/07/11 03:32:12;;;;;;;8.05;2.25;;;;;;;;;;5093656;28;20028;-76
2022/07/11 03:34:39;;;;;;;5.43;2.20;;;;;;;;;;5096957;27;20894;-76
2022/07/11 03:37:05;;;;;;;4.85;2.33;;;;;;;;;;5097613;28;20459;-76
2022/07/11 03:39:31;;;;;;;5.40;2.00;;;;;;;;;;5101305;27;20400;-76
2022/07/11 03:41:57;;;;;;;7.25;2.20;;;;;;;;;;5102008;27;20030;-76
2022/07/11 03:44:24;;;;;;;9.60;2.50;;;;;;;;;;5096514;28;20097;-77
2022/07/11 03:46:50;;;;;;;7.13;2.15;;;;;;;;;;5099294;27;20071;-76
2022/07/11 03:49:16;;;;;;;5.78;2.63;;;;;;;;;;5099336;28;20059;-76
2022/07/11 03:51:42;;;;;;;7.22;2.55;;;;;;;;;;5103546;27;20031;-76
2022/07/11 03:54:08;;;;;;;9.73;2.17;;;;;;;;;;5099269;28;20031;-76
2022/07/11 03:56:34;;;;;;;7.20;2.78;;;;;;;;;;5100764;27;20027;-75
2022/07/11 03:59:00;;;;;;;6.18;2.33;;;;;;;;;;5097701;27;20806;-75
2022/07/11 04:01:26;;;;;;;7.03;2.80;;;;;;;;;;5098136;27;20111;-76
2022/07/11 04:03:52;;;;;;;8.23;2.63;;;;;;;;;;5099467;27;20032;-75
2022/07/11 04:06:18;;;;;;;7.95;2.35;;;;;;;;;;5097123;28;20039;-76
2022/07/11 04:08:44;;;;;;;8.65;2.30;;;;;;;;;;5094843;27;20081;-76
2022/07/11 04:11:10;;;;;;;4.63;1.58;;;;;;;;;;5077997;28;20060;-75
2022/07/11 04:13:36;;;;;;;6.57;1.73;;;;;;;;;;5094576;28;20074;-76
2022/07/11 04:16:03;;;;;;;5.70;1.70;;;;;;;;;;5096973;28;20039;-76
2022/07/11 04:18:29;;;;;;;6.00;1.55;;;;;;;;;;5095376;28;20922;-76
2022/07/11 04:20:55;;;;;;;6.60;1.55;;;;;;;;;;5098315;28;20538;-76
2022/07/11 04:23:21;;;;;;;6.95;1.73;;;;;;;;;;5096412;28;20036;-75
2022/07/11 04:25:47;;;;;;;5.78;1.85;;;;;;;;;;5098975;28;20670;-75
2022/07/11 04:28:13;;;;;;;6.22;1.48;;;;;;;;;;5095715;28;20482;-76
2022/07/11 04:30:39;;;;;;;4.65;1.33;;;;;;;;;;5099254;28;20061;-75
2022/07/11 04:33:05;;;;;;;7.55;1.52;;;;;;;;;;5079863;28;20055;-75
2022/07/11 04:35:31;;;;;;;5.72;1.80;;;;;;;;;;5100443;28;20129;-76
2022/07/11 04:37:57;;;;;;;8.05;1.65;;;;;;;;;;5089049;22;20044;-75
2022/07/11 04:40:23;;;;;;;9.70;1.92;;;;;;;;;;5060478;28;20044;-76
2022/07/11 04:42:50;;;;;;;8.00;1.48;;;;;;;;;;5066527;28;20032;-75
2022/07/11 04:45:16;;;;;;;4.22;1.45;;;;;;;;;;5062954;28;20033;-76
2022/07/11 04:47:42;;;;;;;12.20;1.67;;;;;;;;;;5064785;28;20041;-76
2022/07/11 04:50:08;;;;;;;7.47;1.35;;;;;;;;;;5066592;28;20111;-76
2022/07/11 04:52:34;;;;;;;3.17;1.30;;;;;;;;;;5062244;28;20025;-75
2022/07/11 04:55:00;;;;;;;11.05;2.00;;;;;;;;;;5060719;28;20106;-76
2022/07/11 04:57:27;;;;;;;5.32;1.60;;;;;;;;;;5063251;28;20029;-76
2022/07/11 04:59:53;;;;;;;9.23;1.88;;;;;;;;;;5068727;28;20035;-76
2022/07/11 05:02:19;;;;;;;5.95;1.73;;;;;;;;;;5066454;28;20040;-75
2022/07/11 05:04:45;;;;;;;7.40;1.98;;;;;;;;;;5066607;28;20111;-75
2022/07/11 05:07:15;;;;;;;9.02;2.40;;;;;;;;;;5067052;28;20041;-75
2022/07/11 05:09:41;;;;;;;7.20;2.65;;;;;;;;;;5063630;28;20036;-76
2022/07/11 05:12:08;;;;;;;13.32;3.58;;;;;;;;;;5064542;28;20043;-76
2022/07/11 05:14:34;;;;;;;12.55;4.00;;;;;;;;;;5062174;28;20036;-76
2022/07/11 05:17:00;;;;;;;9.65;3.65;;;;;;;;;;5063496;28;20029;-76
2022/07/11 05:19:26;;;;;;;11.55;3.78;;;;;;;;;;5067373;28;20540;-76
2022/07/11 05:21:52;;;;;;;16.50;3.63;;;;;;;;;;5072325;28;20036;-76
2022/07/11 05:24:18;;;;;;;9.40;2.78;;;;;;;;;;5066518;28;20084;-76
2022/07/11 05:26:44;;;;;;;6.78;2.80;;;;;;;;;;5065081;28;20033;-75
2022/07/11 05:29:10;;;;;;;10.05;2.28;;;;;;;;;;5071248;28;20531;-75
2022/07/11 05:31:36;;;;;;;8.32;1.98;;;;;;;;;;5065886;28;20060;-75
2022/07/11 05:34:03;;;;;;;5.43;1.92;;;;;;;;;;5065875;28;20036;-75
2022/07/11 05:36:29;;;;;;;4.43;1.70;;;;;;;;;;5067709;28;20052;-76
2022/07/11 05:38:55;;;;;;;7.80;2.03;;;;;;;;;;5066242;28;20043;-76
2022/07/11 05:41:21;;;;;;;9.55;2.20;;;;;;;;;;5067309;28;20063;-76
2022/07/11 05:43:47;;;;;;;7.63;1.50;;;;;;;;;;5066846;28;20078;-76
2022/07/11 05:46:13;;;;;;;9.50;2.15;;;;;;;;;;5066598;28;20440;-76
2022/07/11 05:48:39;;;;;;;12.65;2.20;;;;;;;;;;5070415;28;20042;-75
2022/07/11 05:51:05;;;;;;;9.13;1.77;;;;;;;;;;5071419;28;20414;-76
2022/07/11 05:53:32;;;;;;;13.20;2.40;;;;;;;;;;5068124;28;20086;-75
2022/07/11 05:55:58;;;;;;;10.07;1.40;;;;;;;;;;5064463;28;20036;-75
2022/07/11 05:58:24;;;;;;;8.93;2.45;;;;;;;;;;5067079;28;20040;-75
2022/07/11 06:00:50;;;;;;;7.53;1.70;;;;;;;;;;5064767;28;20029;-76
2022/07/11 06:03:17;;;;;;;8.57;1.60;;;;;;;;;;5065922;28;20118;-75
2022/07/11 06:05:43;;;;;;;7.88;1.70;;;;;;;;;;5066318;28;20431;-76
2022/07/11 06:10:53;;;;;;;10.82;2.05;;;;;;;;;;5065970;28;20391;-76
2022/07/11 06:13:19;;;;;;;14.10;1.92;;;;;;;;;;5064326;28;20032;-76
2022/07/11 06:15:47;;;;;;;7.78;1.98;;;;;;;;;;5060466;28;20029;-76
2022/07/11 06:18:13;;;;;;;6.55;1.77;;;;;;;;;;5054133;28;20028;-76
2022/07/11 06:20:39;;;;;;;10.05;1.63;;;;;;;;;;5060187;28;20135;-76
2022/07/11 06:23:06;;;;;;;6.40;1.40;;;;;;;;;;5063226;28;20032;-77
2022/07/11 06:25:32;;;;;;;7.15;1.63;;;;;;;;;;5062597;28;20083;-76
2022/07/11 06:27:58;;;;;;;4.50;1.25;;;;;;;;;;5062674;28;20039;-76
2022/07/11 06:30:24;;;;;;;5.43;1.13;;;;;;;;;;5060852;28;20036;-76
2022/07/11 06:32:50;;;;;;;9.15;2.13;;;;;;;;;;5062290;28;20039;-78
2022/07/11 06:35:16;;;;;;;5.53;1.38;;;;;;;;;;5058440;28;20052;-76
2022/07/11 06:37:42;;;;;;;6.05;1.58;;;;;;;;;;5062850;28;20387;-77
2022/07/11 06:40:11;;;;;;;7.18;1.25;;;;;;;;;;5061972;28;20025;-77
2022/07/11 06:42:38;;;;;;;4.35;1.10;;;;;;;;;;5065218;28;20032;-78
2022/07/11 06:45:05;;;;;;;6.07;1.40;;;;;;;;;;5062778;28;20107;-77
2022/07/11 06:47:32;;;;;;;6.82;1.70;;;;;;;;;;5063324;28;20032;-77
2022/07/11 06:49:59;;;;;;;4.82;1.25;;;;;;;;;;5058108;28;20025;-77
2022/07/11 06:52:25;;;;;;;9.25;1.63;;;;;;;;;;5064596;28;20032;-77
2022/07/11 06:54:51;;;;;;;4.65;1.20;;;;;;;;;;5060382;28;20077;-76
2022/07/11 06:57:17;;;;;;;5.80;1.42;;;;;;;;;;5062109;28;21572;-75
2022/07/11 06:59:43;;;;;;;6.90;1.77;;;;;;;;;;5065462;28;20032;-77
2022/07/11 07:02:09;;;;;;;5.55;1.50;;;;;;;;;;5060450;28;20070;-77
2022/07/11 07:04:35;;;;;;;9.25;1.63;;;;;;;;;;5053335;28;20032;-77
2022/07/11 07:07:01;;;;;;;6.53;1.50;;;;;;;;;;5062776;28;20081;-77
2022/07/11 07:09:28;;;;;;;6.30;1.75;;;;;;;;;;5062392;28;20044;-77
2022/07/11 07:11:54;;;;;;;9.82;1.33;;;;;;;;;;5057723;28;20506;-77
2022/07/11 07:14:21;;;;;;;6.57;1.67;;;;;;;;;;5061411;28;20062;-77
2022/07/11 07:16:47;;;;;;;7.30;1.48;;;;;;;;;;5059874;28;20040;-77
2022/07/11 07:19:13;;;;;;;4.85;1.20;;;;;;;;;;5061660;28;20036;-77
2022/07/11 07:21:39;;;;;;;7.28;1.50;;;;;;;;;;5060264;28;20547;-77
2022/07/11 07:24:05;;;;;;;11.02;1.60;;;;;;;;;;5061094;28;20020;-77
2022/07/11 07:26:32;;;;;;;5.30;1.40;;;;;;;;;;5057764;28;20557;-77
2022/07/11 07:28:58;;;;;;;9.27;2.00;;;;;;;;;;5061007;28;20033;-77
2022/07/11 07:31:24;;;;;;;6.72;1.92;;;;;;;;;;5053344;28;20291;-74
2022/07/11 07:33:51;;;;;;;7.13;1.42;;;;;;;;;;5063657;28;20030;-77
2022/07/11 07:36:17;;;;;;;7.78;1.58;;;;;;;;;;5062242;28;20163;-77
2022/07/11 07:38:46;;;;;;;6.88;1.38;;;;;;;;;;5060885;28;20383;-77
2022/07/11 07:41:13;;;;;;;6.80;1.95;;;;;;;;;;5060556;28;20809;-77
2022/07/11 07:43:39;;;;;;;8.73;1.63;;;;;;;;;;5059727;28;20449;-77
2022/07/11 07:46:05;;;;;;;5.10;1.42;;;;;;;;;;5060187;28;20104;-77
2022/07/11 07:48:31;;;;;;;8.77;1.58;;;;;;;;;;5058844;28;20032;-77
2022/07/11 07:50:57;;;;;;;8.70;2.17;;;;;;;;;;5061644;28;20566;-77
2022/07/11 07:53:23;;;;;;;7.13;1.90;;;;;;;;;;5060979;28;20570;-77
2022/07/11 07:55:49;;;;;;;11.07;1.88;;;;;;;;;;5059337;28;20041;-77
2022/07/11 07:58:15;;;;;;;10.05;1.52;;;;;;;;;;5056769;28;20031;-77
2022/07/11 08:03:26;;;;;;;8.07;1.48;;;;;;;;;;5060056;28;20036;-77
2022/07/11 08:05:52;;;;;;;11.68;1.90;;;;;;;;;;5061319;28;20036;-77
2022/07/11 08:08:18;;;;;;;7.18;1.83;;;;;;;;;;5061095;28;20075;-77
2022/07/11 08:10:44;;;;;;;6.70;1.95;;;;;;;;;;5060609;28;20040;-77
2022/07/11 08:13:10;;;;;;;6.95;1.45;;;;;;;;;;5061965;28;20028;-77
2022/07/11 08:15:36;;;;;;;6.03;1.45;;;;;;;;;;5059373;28;20040;-77
2022/07/11 08:18:02;;;;;;;5.95;1.30;;;;;;;;;;5058843;28;20028;-77
2022/07/11 08:20:28;;;;;;;4.43;1.40;;;;;;;;;;5060792;28;20360;-78
2022/07/11 08:22:59;;;;;;;8.35;1.45;;;;;;;;;;5063301;28;20028;-78
2022/07/11 08:25:25;;;;;;;10.43;1.83;;;;;;;;;;5053747;28;20781;-77
2022/07/11 08:27:51;;;;;;;5.22;1.58;;;;;;;;;;5059995;28;20059;-77
2022/07/11 08:30:17;;;;;;;6.32;1.55;;;;;;;;;;5057611;28;20025;-77
2022/07/11 08:32:43;;;;;;;5.20;1.23;;;;;;;;;;5061382;28;20794;-77
2022/07/11 08:35:11;;;;;;;5.22;1.13;;;;;;;;;;5066145;28;20033;-77
2022/07/11 08:37:37;;;;;;;6.88;1.40;;;;;;;;;;5061186;28;20544;-77
2022/07/11 08:40:03;;;;;;;8.18;1.40;;;;;;;;;;5065759;28;20060;-77
2022/07/11 08:42:30;;;;;;;8.68;1.50;;;;;;;;;;5066070;28;20055;-77
2022/07/11 08:44:57;;;;;;;5.13;1.27;;;;;;;;;;5066014;28;20021;-77
2022/07/11 08:47:23;;;;;;;11.02;1.73;;;;;;;;;;5063019;28;20827;-77
2022/07/11 08:49:49;;;;;;;5.80;1.30;;;;;;;;;;5063432;28;20082;-77
2022/07/11 08:52:16;;;;;;;7.43;1.35;;;;;;;;;;5065927;28;20460;-77
2022/07/11 08:54:42;;;;;;;6.30;1.55;;;;;;;;;;5064305;28;20119;-77
2022/07/11 08:57:09;;;;;;;6.68;1.30;;;;;;;;;;5063292;28;20068;-77
2022/07/11 08:59:36;;;;;;;4.07;0.90;;;;;;;;;;5065722;28;20061;-77
2022/07/11 09:02:03;;;;;;;10.27;1.67;;;;;;;;;;5065690;28;20047;-74
2022/07/11 09:04:30;;;;;;;5.93;1.40;;;;;;;;;;5066774;28;20480;-74
2022/07/11 09:06:56;;;;;;;9.70;1.50;;;;;;;;;;5062428;28;20123;-74
2022/07/11 09:09:22;;;;;;;12.48;1.58;;;;;;;;;;5067883;28;20036;-74
2022/07/11 09:11:50;;;;;;;5.47;1.38;;;;;;;;;;5061055;28;20058;-74
2022/07/11 09:14:23;;;;;;;7.55;1.35;;;;;;;;;;5063781;28;20052;-75
2022/07/11 09:17:08;;;;;;;7.38;1.33;;;;;;;;;;5058117;28;20074;-74
2022/07/11 09:19:39;;;;;;;4.88;1.27;;;;;;;;;;5061042;28;20028;-74
2022/07/11 09:27:42;;;;;;;4.28;1.20;;;;;;;;;;5062538;28;20185;-75
2022/07/11 09:30:21;;;;;;;5.50;1.65;;;;;;;;;;5065817;28;20083;-75
2022/07/11 09:32:54;;;;;;;6.53;1.35;;;;;;;;;;5066788;28;20410;-74
2022/07/11 09:35:21;;;;;;;5.28;1.33;;;;;;;;;;5060943;28;20040;-74
2022/07/11 09:37:48;;;;;;;7.18;1.63;;;;;;;;;;5063973;28;20036;-74
2022/07/11 09:40:14;;;;;;;6.47;1.45;;;;;;;;;;5066612;28;20028;-75
2022/07/11 09:42:47;;;;;;;6.80;1.30;;;;;;;;;;5064797;28;20506;-74
2022/07/11 09:45:14;;;;;;;5.00;1.40;;;;;;;;;;5060335;28;20043;-77
2022/07/11 09:47:50;;;;;;;4.18;1.25;;;;;;;;;;5065733;28;20039;-77
2022/07/11 09:50:23;;;;;;;5.55;1.20;;;;;;;;;;5065692;28;20028;-74
2022/07/11 09:52:59;;;;;;;5.47;1.10;;;;;;;;;;5061783;28;20895;-74
2022/07/11 09:55:28;;;;;;;4.68;1.10;;;;;;;;;;5062831;28;20064;-73
2022/07/11 09:57:54;;;;;;;7.47;1.48;;;;;;;;;;5062517;28;20032;-75
2022/07/11 10:00:20;;;;;;;6.97;1.88;;;;;;;;;;5060316;28;20743;-75
2022/07/11 10:02:47;;;;;;;4.25;1.10;;;;;;;;;;5066781;28;20063;-75
2022/07/11 10:05:13;;;;;;;4.15;1.42;;;;;;;;;;5068965;28;20035;-75
2022/07/11 10:07:39;;;;;;;3.42;1.40;;;;;;;;;;5065526;28;20674;-75
2022/07/11 10:10:06;;;;;;;4.97;1.50;;;;;;;;;;5061332;28;20060;-75
2022/07/11 10:12:33;;;;;;;3.08;1.10;;;;;;;;;;5062290;28;20094;-75
2022/07/11 10:15:09;;;;;;;5.20;1.30;;;;;;;;;;5064625;28;20417;-75
2022/07/11 10:17:41;;;;;;;3.95;1.30;;;;;;;;;;5065418;28;20020;-75
2022/07/11 10:20:10;;;;;;;6.03;1.40;;;;;;;;;;5062763;28;20052;-75
2022/07/11 10:22:39;;;;;;;4.35;1.00;;;;;;;;;;5065532;28;20482;-75
2022/07/11 10:25:14;;;;;;;6.28;1.10;;;;;;;;;;5065579;28;20070;-75
2022/07/11 10:27:48;;;;;;;6.15;1.55;;;;;;;;;;5064307;28;20033;-75
2022/07/11 10:30:14;;;;;;;4.50;1.10;;;;;;;;;;5061099;28;20028;-75
2022/07/11 10:32:59;;;;;;;4.93;0.90;;;;;;;;;;5062534;28;20037;-75
2022/07/11 10:35:29;;;;;;;3.50;0.93;;;;;;;;;;5065221;28;20053;-75
2022/07/11 10:37:55;;;;;;;14.30;1.10;;;;;;;;;;5068671;28;20094;-78
2022/07/11 10:40:39;;;;;;;7.13;1.75;;;;;;;;;;5059025;28;20410;-77
2022/07/11 10:43:05;;;;;;;4.80;1.65;;;;;;;;;;5065580;28;20095;-77
2022/07/11 10:45:49;;;;;;;3.42;1.10;;;;;;;;;;5062369;28;20486;-75
2022/07/11 10:48:15;;;;;;;6.05;1.10;;;;;;;;;;5062522;28;20065;-74
2022/07/11 10:50:41;;;;;;;5.72;1.30;;;;;;;;;;5060788;28;20045;-75
2022/07/11 10:53:09;;;;;;;5.18;1.10;;;;;;;;;;5057904;28;20025;-75
2022/07/11 10:55:44;;;;;;;5.97;1.38;;;;;;;;;;5064204;28;20555;-75
2022/07/11 10:58:26;;;;;;;4.28;1.00;;;;;;;;;;5063266;28;20400;-75
2022/07/11 11:01:09;;;;;;;7.40;1.20;;;;;;;;;;5062723;28;20032;-75
2022/07/11 11:03:35;;;;;;;7.70;1.88;;;;;;;;;;5058818;28;20016;-75
2022/07/11 11:06:01;;;;;;;5.30;1.23;;;;;;;;;;5064302;28;20132;-75
2022/07/11 11:08:33;;;;;;;3.40;1.40;;;;;;;;;;5064033;28;20791;-75
2022/07/11 11:11:00;;;;;;;5.68;1.25;;;;;;;;;;5065873;28;20025;-76
2022/07/11 11:13:26;;;;;;;3.33;1.10;;;;;;;;;;5062459;28;20028;-75
2022/07/11 11:15:54;;;;;;;5.70;1.70;;;;;;;;;;5063993;28;20454;-75
2022/07/11 11:18:26;;;;;;;4.15;1.40;;;;;;;;;;5038436;28;20029;-75
2022/07/11 11:21:01;;;;;;;7.03;1.65;;;;;;;;;;5064761;28;20490;-75
2022/07/11 11:23:33;;;;;;;8.93;1.73;;;;;;;;;;5057508;28;20020;-75
2022/07/11 11:26:19;;;;;;;5.28;1.20;;;;;;;;;;5062303;28;20093;-75
2022/07/11 11:28:56;;;;;;;3.65;1.10;;;;;;;;;;5063096;28;20375;-75
2022/07/11 11:31:22;;;;;;;7.97;1.10;;;;;;;;;;5064590;28;20071;-75
2022/07/11 11:33:48;;;;;;;5.05;0.90;;;;;;;;;;5059096;28;20031;-75
2022/07/11 11:36:18;;;;;;;6.07;1.27;;;;;;;;;;5060450;28;20373;-75
2022/07/11 11:38:46;;;;;;;8.43;1.80;;;;;;;;;;5065729;28;20024;-75
2022/07/11 11:41:14;;;;;;;6.35;1.33;;;;;;;;;;5065024;28;20038;-75
2022/07/11 11:43:47;;;;;;;8.45;1.65;;;;;;;;;;5059766;28;20351;-75
2022/07/11 11:46:13;;;;;;;8.63;1.20;;;;;;;;;;5059317;28;20038;-76
2022/07/11 11:48:45;;;;;;;6.10;1.00;;;;;;;;;;5063947;28;20042;-76
2022/07/11 11:51:15;;;;;;;7.88;1.27;;;;;;;;;;5057665;28;20581;-76
2022/07/11 11:53:43;;;;;;;12.02;1.77;;;;;;;;;;5059051;28;20099;-75
2022/07/11 11:56:16;;;;;;;5.88;0.95;;;;;;;;;;5059233;28;20032;-76
2022/07/11 11:58:45;;;;;;;4.38;0.98;;;;;;;;;;5062419;28;20024;-76
2022/07/11 12:01:12;;;;;;;5.68;1.13;;;;;;;;;;5062797;28;20097;-76
2022/07/11 12:03:50;;;;;;;6.43;1.20;;;;;;;;;;5059539;28;20025;-75
2022/07/11 12:06:16;;;;;;;5.00;1.55;;;;;;;;;;5057126;28;20048;-75
2022/07/11 12:08:42;;;;;;;5.03;1.27;;;;;;;;;;5056584;28;20028;-75
2022/07/11 12:11:15;;;;;;;9.10;1.10;;;;;;;;;;5057727;28;20044;-76
2022/07/11 12:13:41;;;;;;;5.25;1.20;;;;;;;;;;5058597;28;20038;-76
2022/07/11 12:19:02;;;;;;;5.93;1.13;;;;;;;;;;5057164;28;20506;-76
2022/07/11 12:21:30;;;;;;;4.75;1.52;;;;;;;;;;5059068;28;20033;-76
2022/07/11 12:24:00;;;;;;;4.65;1.10;;;;;;;;;;5057134;28;20897;-76
2022/07/11 12:26:30;;;;;;;5.82;1.52;;;;;;;;;;5058122;28;20474;-75
2022/07/11 12:29:07;;;;;;;4.68;1.38;;;;;;;;;;5059785;28;20119;-75
2022/07/11 12:31:42;;;;;;;3.80;1.38;;;;;;;;;;5058868;28;20087;-75
2022/07/11 12:34:08;;;;;;;7.85;1.58;;;;;;;;;;5064454;28;20028;-75
2022/07/11 12:36:34;;;;;;;4.43;1.20;;;;;;;;;;5063247;28;20475;-75
2022/07/11 12:39:00;;;;;;;4.40;1.13;;;;;;;;;;5063546;28;20020;-75
2022/07/11 12:41:29;;;;;;;7.40;1.38;;;;;;;;;;5058592;28;20645;-75
2022/07/11 12:46:40;;;;;;;7.70;1.42;;;;;;;;;;5058822;28;20082;-74
2022/07/11 12:49:10;;;;;;;5.93;1.02;;;;;;;;;;5062843;28;20375;-75
2022/07/11 12:51:41;;;;;;;8.80;1.17;;;;;;;;;;5059741;28;20036;-75
2022/07/11 12:54:08;;;;;;;7.22;1.05;;;;;;;;;;5057399;28;20024;-75
2022/07/11 12:56:35;;;;;;;4.40;1.48;;;;;;;;;;5058952;28;20029;-75
2022/07/11 12:59:01;;;;;;;7.75;1.50;;;;;;;;;;5061742;28;20032;-76
2022/07/11 13:01:28;;;;;;;6.97;1.23;;;;;;;;;;5059615;28;20119;-76
2022/07/11 13:03:54;;;;;;;6.88;1.20;;;;;;;;;;5057135;28;20074;-76
2022/07/11 13:08:41;;;;;;;9.27;1.20;;;;;;;;;;5057599;28;20053;-77
2022/07/11 13:09:08;;;;;;;8.23;1.48;;;;;;;;;;5053880;28;20399;-77
2022/07/11 13:11:34;;;;;;;6.53;1.17;;;;;;;;;;5060987;28;20718;-77
2022/07/11 13:14:00;;;;;;;6.18;1.23;;;;;;;;;;5063657;28;20032;-77
2022/07/11 13:16:26;;;;;;;5.47;1.13;;;;;;;;;;5061146;28;20571;-77
2022/07/11 13:18:52;;;;;;;8.50;1.38;;;;;;;;;;5061421;28;20044;-77
2022/07/11 13:21:19;;;;;;;4.00;1.40;;;;;;;;;;5071644;28;20074;-76
2022/07/11 13:23:46;;;;;;;5.88;1.50;;;;;;;;;;5062190;28;20036;-77
2022/07/11 13:26:12;;;;;;;5.30;1.20;;;;;;;;;;5060369;28;20075;-77
2022/07/11 13:28:38;;;;;;;7.43;1.00;;;;;;;;;;5065253;28;20052;-77
2022/07/11 13:31:05;;;;;;;6.20;0.95;;;;;;;;;;5062958;28;20030;-77
2022/07/11 13:33:31;;;;;;;5.68;1.30;;;;;;;;;;5061715;28;20033;-77
2022/07/11 13:35:57;;;;;;;6.90;1.40;;;;;;;;;;5054359;28;20067;-77
2022/07/11 13:38:24;;;;;;;4.22;1.27;;;;;;;;;;5039129;28;20036;-77
2022/07/11 13:40:50;;;;;;;8.02;1.10;;;;;;;;;;5041404;28;20037;-77
2022/07/11 13:43:16;;;;;;;6.82;1.17;;;;;;;;;;5044259;28;21003;-77
2022/07/11 13:45:44;;;;;;;8.90;1.10;;;;;;;;;;5035918;28;20128;-77
2022/07/11 13:48:10;;;;;;;18.30;1.20;;;;;;;;;;5039867;28;20025;-77
2022/07/11 13:50:36;;;;;;;7.22;1.42;;;;;;;;;;5037634;28;20038;-77
2022/07/11 13:53:02;;;;;;;4.07;1.23;;;;;;;;;;5040707;28;20040;-77
2022/07/11 13:55:29;;;;;;;9.77;1.20;;;;;;;;;;5042781;28;20049;-77
2022/07/11 13:57:56;;;;;;;3.53;0.95;;;;;;;;;;5040209;28;20107;-77
2022/07/11 14:00:22;;;;;;;4.05;1.08;;;;;;;;;;5042925;28;20042;-77
2022/07/11 14:02:49;;;;;;;5.13;1.13;;;;;;;;;;5041312;28;20032;-76
2022/07/11 14:05:15;;;;;;;6.35;1.27;;;;;;;;;;5040261;28;20116;-76
2022/07/11 14:07:41;;;;;;;5.40;1.05;;;;;;;;;;5043178;28;20090;-77
2022/07/11 14:10:08;;;;;;;3.38;1.20;;;;;;;;;;5041215;28;20032;-77
2022/07/11 14:12:35;;;;;;;7.20;2.45;;;;;;;;;;5039600;28;20503;-76
2022/07/11 14:15:01;;;;;;;5.28;1.15;;;;;;;;;;5036160;28;20033;-78
2022/07/11 14:17:27;;;;;;;4.97;0.93;;;;;;;;;;5042828;28;20033;-77
2022/07/11 14:19:54;;;;;;;6.20;1.20;;;;;;;;;;5041953;28;20365;-77
2022/07/11 14:22:20;;;;;;;7.05;1.45;;;;;;;;;;5040022;28;20115;-77
2022/07/11 14:24:46;;;;;;;6.60;1.17;;;;;;;;;;5040548;28;20055;-77
2022/07/11 14:27:13;;;;;;;6.65;1.20;;;;;;;;;;5035161;28;20038;-76
2022/07/11 14:29:41;;;;;;;5.40;1.00;;;;;;;;;;5038367;28;20045;-76
2022/07/11 14:32:07;;;;;;;6.93;1.20;;;;;;;;;;5040950;28;20033;-76
2022/07/11 14:34:33;;;;;;;9.98;1.08;;;;;;;;;;5037236;28;20061;-76
2022/07/11 14:36:59;;;;;;;5.53;1.33;;;;;;;;;;5052471;28;20087;-77
2022/07/11 14:39:25;;;;;;;5.85;1.20;;;;;;;;;;5062658;28;20120;-77
2022/07/11 14:41:51;;;;;;;7.45;1.55;;;;;;;;;;5055406;28;20128;-77
2022/07/11 14:44:18;;;;;;;8.00;1.15;;;;;;;;;;5064015;28;20020;-76
2022/07/11 14:46:44;;;;;;;9.07;1.13;;;;;;;;;;5062765;28;20048;-77
2022/07/11 14:49:10;;;;;;;4.50;1.10;;;;;;;;;;5057590;28;20115;-76
2022/07/11 14:51:36;;;;;;;6.00;1.10;;;;;;;;;;5057255;28;20083;-76
2022/07/11 14:54:03;;;;;;;10.27;1.15;;;;;;;;;;5055282;28;20272;-77
2022/07/11 14:56:29;;;;;;;4.90;1.00;;;;;;;;;;5058728;28;20040;-76
2022/07/11 14:58:55;;;;;;;4.47;1.10;;;;;;;;;;5060016;28;20570;-77
2022/07/11 15:01:21;;;;;;;6.15;1.23;;;;;;;;;;5062419;28;20039;-77